Terminal Aerodrome Forecast
Issued by NWS

Home | Current Version | Previous Version | Text Only | Print | Product List | Glossary On
Versions: 1 2 3 4 5 6 7 8 9 10 11 12 13 14 15 16 17 18 19 20 21 22 23 24 25 26 27 28 29 30 31
955
FTUS44 KEWX 241000 AAB
TAFSSF
TAF AMD
KSSF 241000Z 2410/2506 13005KT P6SM OVC009
     FM241200 14005KT 3SM BR OVC005
     FM241500 15010KT P6SM OVC015
     FM241900 14010KT P6SM BKN035
     FM250300 12005KT P6SM BKN015=

USA.gov is the U.S. government's official web portal to all federal, state and local government web resources and services.